createdAt,value
2023-02-18T00:00:57.829Z,6.40
2023-02-18T00:01:57.903Z,6.70
2023-02-18T00:02:57.939Z,6.70
2023-02-18T00:03:57.745Z,7.20
2023-02-18T00:04:57.735Z,5.00
2023-02-18T00:05:57.754Z,13.70
2023-02-18T00:06:57.714Z,7.80
2023-02-18T00:07:57.723Z,9.70
2023-02-18T00:08:57.674Z,5.60
2023-02-18T00:09:57.710Z,7.70
2023-02-18T00:10:57.694Z,13.80
2023-02-18T00:11:57.642Z,8.40
2023-02-18T00:12:57.640Z,13.00
2023-02-18T00:13:57.631Z,11.40
2023-02-18T00:14:57.637Z,9.80
2023-02-18T00:15:57.653Z,16.20
2023-02-18T00:16:57.574Z,10.90
2023-02-18T00:17:57.580Z,15.80
2023-02-18T00:18:57.569Z,13.10
2023-02-18T00:19:57.533Z,15.00
2023-02-18T00:20:57.605Z,22.70
2023-02-18T00:21:57.513Z,12.00
2023-02-18T00:22:57.508Z,18.90
2023-02-18T00:23:57.492Z,15.80
2023-02-18T00:24:57.522Z,24.40
2023-02-18T00:25:57.492Z,14.10
2023-02-18T00:26:57.450Z,17.30
2023-02-18T00:27:57.448Z,14.60
2023-02-18T00:28:57.434Z,16.90
2023-02-18T00:29:57.497Z,15.50
2023-02-18T00:30:57.494Z,15.90
2023-02-18T00:31:57.620Z,16.70
2023-02-18T00:32:57.384Z,16.60
2023-02-18T00:33:57.360Z,13.00
2023-02-18T00:34:57.343Z,14.60
2023-02-18T00:35:57.382Z,16.20
2023-02-18T00:36:57.310Z,19.90
2023-02-18T00:37:57.302Z,15.40
2023-02-18T00:38:57.327Z,24.70
2023-02-18T00:39:57.279Z,18.10
2023-02-18T00:40:57.310Z,20.80
2023-02-18T00:41:57.240Z,17.20
2023-02-18T00:42:57.226Z,13.40
2023-02-18T00:43:57.227Z,20.00
2023-02-18T00:44:57.209Z,16.70
2023-02-18T00:45:57.301Z,22.80
2023-02-18T00:46:57.178Z,18.50
2023-02-18T00:47:57.161Z,19.20
2023-02-18T00:48:57.153Z,19.50
2023-02-18T00:49:57.191Z,31.20
2023-02-18T00:50:57.153Z,19.60
2023-02-18T00:51:57.118Z,20.50
2023-02-18T00:52:57.110Z,19.50
2023-02-18T00:53:57.121Z,25.20
2023-02-18T00:54:57.087Z,17.00
2023-02-18T00:55:57.089Z,25.30
2023-02-18T00:56:57.069Z,15.10
2023-02-18T00:57:57.094Z,16.20
2023-02-18T00:58:57.020Z,13.50
2023-02-18T00:59:57.022Z,18.10
2023-02-18T01:00:57.036Z,23.00
2023-02-18T01:01:57.026Z,15.00
2023-02-18T01:02:56.983Z,23.20
2023-02-18T01:03:56.973Z,19.60
2023-02-18T01:04:56.987Z,20.20
2023-02-18T01:05:56.970Z,21.40
2023-02-18T01:06:56.936Z,18.10
2023-02-18T01:07:56.923Z,18.70
2023-02-18T01:09:01.013Z,18.10
2023-02-18T01:09:56.891Z,18.90
2023-02-18T01:10:56.891Z,16.40
2023-02-18T01:11:56.862Z,17.00
2023-02-18T01:12:56.834Z,21.50
2023-02-18T01:13:56.832Z,18.00
2023-02-18T01:14:56.829Z,23.70
2023-02-18T01:15:56.904Z,16.80
2023-02-18T01:16:56.820Z,21.00
2023-02-18T01:17:56.785Z,15.10
2023-02-18T01:18:56.762Z,23.40
2023-02-18T01:19:56.774Z,22.70
2023-02-18T01:20:56.848Z,22.20
2023-02-18T01:21:56.727Z,18.90
2023-02-18T01:22:56.710Z,23.00
2023-02-18T01:23:56.693Z,19.80
2023-02-18T01:24:56.692Z,20.20
2023-02-18T01:25:56.715Z,21.40
2023-02-18T01:26:56.665Z,23.00
2023-02-18T01:27:56.652Z,26.30
2023-02-18T01:28:56.636Z,20.40
2023-02-18T01:29:56.704Z,22.80
2023-02-18T01:30:56.695Z,18.70
2023-02-18T01:31:56.648Z,23.20
2023-02-18T01:32:56.595Z,21.00
2023-02-18T01:33:56.588Z,26.70
2023-02-18T01:34:56.557Z,21.30
2023-02-18T01:35:56.572Z,19.50
2023-02-18T01:36:56.552Z,19.00
2023-02-18T01:37:56.579Z,23.70
2023-02-18T01:38:57.322Z,20.60
2023-02-18T01:39:56.502Z,18.00
2023-02-18T01:40:56.512Z,22.30
2023-02-18T01:41:56.467Z,18.50
2023-02-18T01:42:56.449Z,19.00
2023-02-18T01:43:56.458Z,22.20
2023-02-18T01:44:56.415Z,18.40
2023-02-18T01:45:56.450Z,22.10
2023-02-18T01:46:56.471Z,21.00
2023-02-18T01:47:56.386Z,24.10
2023-02-18T01:48:56.358Z,18.90
2023-02-18T01:49:56.361Z,21.50
2023-02-18T01:50:56.378Z,28.30
2023-02-18T01:51:56.326Z,26.70
2023-02-18T01:52:56.306Z,24.50
2023-02-18T01:53:56.330Z,22.30
2023-02-18T01:54:56.293Z,20.30
2023-02-18T01:55:56.306Z,19.50
2023-02-18T01:56:56.412Z,30.80
2023-02-18T01:57:56.249Z,17.90
2023-02-18T01:58:56.330Z,23.60
2023-02-18T01:59:56.241Z,20.50
2023-02-18T02:00:56.239Z,20.20
2023-02-18T02:01:56.333Z,23.60
2023-02-18T02:02:56.177Z,15.90
2023-02-18T02:03:56.172Z,24.50
2023-02-18T02:04:56.175Z,19.60
2023-02-18T02:05:56.902Z,21.00
2023-02-18T02:06:56.178Z,21.20
2023-02-18T02:07:56.162Z,17.20
2023-02-18T02:08:56.099Z,19.60
2023-02-18T02:09:56.112Z,24.40
2023-02-18T02:10:56.075Z,24.00
2023-02-18T02:11:56.098Z,20.50
2023-02-18T02:12:56.057Z,22.00
2023-02-18T02:13:56.066Z,18.30
2023-02-18T02:14:56.026Z,17.60
2023-02-18T02:15:56.029Z,22.10
2023-02-18T02:16:56.033Z,15.00
2023-02-18T02:17:55.988Z,24.60
2023-02-18T02:18:55.986Z,22.30
2023-02-18T02:19:55.965Z,24.00
2023-02-18T02:20:55.980Z,19.20
2023-02-18T02:21:55.975Z,25.20
2023-02-18T02:22:55.921Z,23.00
2023-02-18T02:23:55.909Z,26.20
2023-02-18T02:24:55.905Z,21.80
2023-02-18T02:25:55.881Z,25.50
2023-02-18T02:26:55.891Z,27.70
2023-02-18T02:27:55.880Z,25.80
2023-02-18T02:28:55.832Z,26.30
2023-02-18T02:29:55.976Z,21.80
2023-02-18T02:30:55.849Z,22.10
2023-02-18T02:31:55.887Z,25.70
2023-02-18T02:32:55.791Z,23.40
2023-02-18T02:33:55.770Z,23.20
2023-02-18T02:34:55.783Z,27.00
2023-02-18T02:35:55.746Z,27.00
2023-02-18T02:36:55.751Z,27.90
2023-02-18T02:37:55.735Z,23.00
2023-02-18T02:38:55.757Z,29.80
2023-02-18T02:39:55.699Z,28.30
2023-02-18T02:40:55.703Z,30.00
2023-02-18T02:41:55.712Z,22.10
2023-02-18T02:42:55.678Z,31.40
2023-02-18T02:43:55.679Z,29.00
2023-02-18T02:44:55.657Z,30.30
2023-02-18T02:45:55.688Z,36.00
2023-02-18T02:46:55.643Z,34.00
2023-02-18T02:47:55.597Z,36.10
2023-02-18T02:48:55.575Z,30.90
2023-02-18T02:49:55.576Z,33.30
2023-02-18T02:50:55.556Z,31.00
2023-02-18T02:51:55.694Z,33.40
2023-02-18T02:52:55.541Z,34.10
2023-02-18T02:53:55.590Z,32.50
2023-02-18T02:54:55.550Z,28.40
2023-02-18T02:55:55.493Z,31.00
2023-02-18T02:56:55.508Z,35.20
2023-02-18T02:57:55.490Z,31.70
2023-02-18T02:58:55.447Z,33.70
2023-02-18T02:59:55.437Z,33.80
2023-02-18T03:00:55.475Z,31.20
2023-02-18T03:01:55.452Z,36.50
2023-02-18T03:02:55.427Z,30.70
2023-02-18T03:03:55.407Z,32.00
2023-02-18T03:04:55.365Z,31.80
2023-02-18T03:05:55.362Z,39.60
2023-02-18T03:06:55.385Z,34.00
2023-02-18T03:07:55.354Z,27.00
2023-02-18T03:08:55.330Z,31.90
2023-02-18T03:09:55.317Z,32.50
2023-02-18T03:10:55.285Z,35.00
2023-02-18T03:11:55.315Z,30.10
2023-02-18T03:12:55.272Z,27.40
2023-02-18T03:13:55.255Z,27.90
2023-02-18T03:14:55.244Z,23.30
2023-02-18T03:15:55.250Z,19.10
2023-02-18T03:16:55.317Z,16.50
2023-02-18T03:17:55.214Z,21.90
2023-02-18T03:18:55.185Z,18.40
2023-02-18T03:19:55.191Z,18.60
2023-02-18T03:20:55.181Z,19.10
2023-02-18T03:21:55.179Z,18.80
2023-02-18T03:22:55.122Z,20.20
2023-02-18T03:23:55.149Z,19.20
2023-02-18T03:24:55.126Z,16.90
2023-02-18T03:25:55.099Z,17.30
2023-02-18T03:26:55.132Z,15.60
2023-02-18T03:27:55.064Z,15.20
2023-02-18T03:28:55.078Z,12.30
2023-02-18T03:29:55.052Z,16.40
2023-02-18T03:30:55.044Z,15.00
2023-02-18T03:31:55.157Z,12.60
2023-02-18T03:32:55.016Z,13.20
2023-02-18T03:33:55.000Z,11.70
2023-02-18T03:34:54.994Z,13.00
2023-02-18T03:35:54.964Z,12.80
2023-02-18T03:36:54.997Z,9.80
2023-02-18T03:37:54.934Z,12.70
2023-02-18T03:38:55.596Z,11.40
2023-02-18T03:39:54.912Z,15.70
2023-02-18T03:40:55.092Z,12.90
2023-02-18T03:41:54.918Z,13.60
2023-02-18T03:42:54.890Z,15.10
2023-02-18T03:43:54.855Z,16.60
2023-02-18T03:44:54.853Z,14.20
2023-02-18T03:45:55.330Z,13.30
2023-02-18T03:46:54.882Z,14.60
2023-02-18T03:47:54.809Z,11.30
2023-02-18T03:48:54.818Z,13.30
2023-02-18T03:49:55.567Z,12.30
2023-02-18T03:50:54.785Z,14.30
2023-02-18T03:51:54.862Z,14.90
2023-02-18T03:52:54.742Z,18.40
2023-02-18T03:53:54.762Z,12.50
2023-02-18T03:54:54.712Z,14.50
2023-02-18T03:55:54.729Z,14.50
2023-02-18T03:56:54.721Z,15.70
2023-02-18T03:57:54.690Z,16.60
2023-02-18T03:58:54.667Z,13.20
2023-02-18T03:59:54.651Z,18.00
2023-02-18T04:00:54.682Z,17.60
2023-02-18T04:01:54.659Z,15.30
2023-02-18T04:02:54.661Z,16.10
2023-02-18T04:03:54.712Z,14.90
2023-02-18T04:04:54.588Z,16.40
2023-02-18T04:05:54.572Z,18.90
2023-02-18T04:06:54.604Z,15.70
2023-02-18T04:07:54.548Z,14.60
2023-02-18T04:08:54.537Z,15.00
2023-02-18T04:09:54.508Z,11.60
2023-02-18T04:10:54.505Z,15.30
2023-02-18T04:11:54.514Z,15.80
2023-02-18T04:12:54.476Z,12.90
2023-02-18T04:13:54.457Z,13.10
2023-02-18T04:14:54.485Z,11.00
2023-02-18T04:15:54.436Z,17.00
2023-02-18T04:16:54.566Z,13.20
2023-02-18T04:17:54.429Z,10.70
2023-02-18T04:18:54.407Z,12.10
2023-02-18T04:19:54.396Z,10.40
2023-02-18T04:20:54.366Z,11.10
2023-02-18T04:21:54.385Z,15.00
2023-02-18T04:22:54.357Z,10.80
2023-02-18T04:23:54.376Z,10.70
2023-02-18T04:24:54.319Z,11.70
2023-02-18T04:25:54.295Z,13.00
2023-02-18T04:26:54.398Z,9.10
2023-02-18T04:27:54.279Z,12.50
2023-02-18T04:28:54.267Z,19.00
2023-02-18T04:29:54.261Z,14.80
2023-02-18T04:30:54.328Z,9.30
2023-02-18T04:31:54.279Z,14.20
2023-02-18T04:32:54.215Z,9.30
2023-02-18T04:33:54.209Z,12.80
2023-02-18T04:34:54.189Z,9.50
2023-02-18T04:35:54.169Z,12.30
2023-02-18T04:36:54.264Z,14.50
2023-02-18T04:37:54.143Z,17.40
2023-02-18T04:38:54.144Z,16.30
2023-02-18T04:39:54.124Z,11.40
2023-02-18T04:40:54.103Z,15.70
2023-02-18T04:41:54.129Z,17.20
2023-02-18T04:42:54.090Z,16.20
2023-02-18T04:43:54.062Z,16.90
2023-02-18T04:44:54.062Z,16.90
2023-02-18T04:45:54.072Z,18.50
2023-02-18T04:46:54.069Z,16.50
2023-02-18T04:47:54.028Z,36.50
2023-02-18T04:48:54.098Z,14.80
2023-02-18T04:49:53.982Z,17.50
2023-02-18T04:50:53.973Z,19.20
2023-02-18T04:51:53.991Z,18.60
2023-02-18T04:52:58.314Z,20.40
2023-02-18T04:53:53.933Z,14.90
2023-02-18T04:54:53.936Z,19.90
2023-02-18T04:55:53.949Z,16.00
2023-02-18T04:56:53.920Z,17.00
2023-02-18T04:57:53.973Z,13.60
2023-02-18T04:58:53.874Z,17.00
2023-02-18T04:59:53.844Z,17.50
2023-02-18T05:00:53.968Z,16.60
2023-02-18T05:01:53.863Z,16.40
2023-02-18T05:02:53.817Z,15.40
2023-02-18T05:03:53.853Z,15.10
2023-02-18T05:04:53.820Z,18.40
2023-02-18T05:05:54.548Z,16.70
2023-02-18T05:06:53.843Z,18.00
2023-02-18T05:07:53.752Z,16.60
2023-02-18T05:08:53.756Z,22.80
2023-02-18T05:09:53.736Z,15.60
2023-02-18T05:10:53.709Z,13.30
2023-02-18T05:11:53.731Z,19.10
2023-02-18T05:12:53.696Z,16.90
2023-02-18T05:13:53.667Z,16.30
2023-02-18T05:14:53.660Z,16.30
2023-02-18T05:15:53.714Z,14.90
2023-02-18T05:16:53.637Z,18.50
2023-02-18T05:17:53.649Z,16.70
2023-02-18T05:18:53.634Z,15.80
2023-02-18T05:19:53.605Z,15.20
2023-02-18T05:20:53.590Z,15.70
2023-02-18T05:21:53.568Z,12.80
2023-02-18T05:22:53.608Z,12.80
2023-02-18T05:23:53.554Z,12.50
2023-02-18T05:24:53.536Z,15.30
2023-02-18T05:25:53.509Z,17.60
2023-02-18T05:26:53.524Z,13.90
2023-02-18T05:27:53.526Z,11.70
2023-02-18T05:28:53.476Z,14.30
2023-02-18T05:29:53.532Z,12.20
2023-02-18T05:30:53.521Z,15.00
2023-02-18T05:31:53.595Z,11.80
2023-02-18T05:32:53.462Z,11.70
2023-02-18T05:33:53.416Z,13.10
2023-02-18T05:34:53.462Z,11.60
2023-02-18T05:35:53.386Z,9.70
2023-02-18T05:36:53.591Z,10.10
2023-02-18T05:37:53.384Z,13.50
2023-02-18T05:38:53.347Z,11.50
2023-02-18T05:39:53.326Z,10.80
2023-02-18T05:40:53.332Z,11.70
2023-02-18T05:41:53.327Z,8.70
2023-02-18T05:42:53.317Z,11.00
2023-02-18T05:43:53.267Z,13.90
2023-02-18T05:44:53.388Z,10.30
2023-02-18T05:45:53.275Z,10.20
2023-02-18T05:46:53.247Z,11.00
2023-02-18T05:47:53.287Z,10.70
2023-02-18T05:48:53.228Z,12.50
2023-02-18T05:49:53.389Z,11.30
2023-02-18T05:50:53.307Z,11.20
2023-02-18T05:51:53.211Z,8.90
2023-02-18T05:52:53.214Z,9.80
2023-02-18T05:53:53.148Z,9.20
2023-02-18T05:54:53.162Z,11.50
2023-02-18T05:55:57.256Z,9.20
2023-02-18T05:56:54.254Z,6.70
2023-02-18T05:57:53.482Z,10.60
2023-02-18T05:58:56.459Z,8.80
2023-02-18T05:59:53.107Z,10.40
2023-02-18T06:00:53.791Z,8.20
2023-02-18T06:01:53.140Z,11.30
2023-02-18T06:02:53.334Z,5.50
2023-02-18T06:03:53.176Z,9.30
2023-02-18T06:04:53.075Z,8.50
2023-02-18T06:05:53.105Z,7.80
2023-02-18T06:06:53.092Z,8.80
2023-02-18T06:07:55.212Z,8.90
2023-02-18T06:08:53.016Z,13.10
2023-02-18T06:09:52.926Z,8.50
2023-02-18T06:10:52.904Z,7.10
2023-02-18T06:11:52.884Z,9.70
2023-02-18T06:12:52.898Z,6.10
2023-02-18T06:13:52.885Z,5.30
2023-02-18T06:14:52.825Z,6.60
2023-02-18T06:15:52.833Z,6.60
2023-02-18T06:16:52.804Z,6.30
2023-02-18T06:17:52.807Z,6.90
2023-02-18T06:18:52.766Z,6.80
2023-02-18T06:19:52.909Z,8.00
2023-02-18T06:20:52.746Z,5.70
2023-02-18T06:21:52.724Z,5.30
2023-02-18T06:22:53.555Z,5.50
2023-02-18T06:23:52.809Z,5.00
2023-02-18T06:24:52.686Z,6.00
2023-02-18T06:25:52.811Z,7.80
2023-02-18T06:26:52.669Z,5.40
2023-02-18T06:27:52.673Z,4.90
2023-02-18T06:28:52.738Z,5.40
2023-02-18T06:29:52.620Z,3.10
2023-02-18T06:30:52.613Z,5.50
2023-02-18T06:31:52.673Z,3.00
2023-02-18T06:32:52.603Z,4.10
2023-02-18T06:33:52.598Z,7.00
2023-02-18T06:34:52.551Z,5.60
2023-02-18T06:35:52.538Z,6.60
2023-02-18T06:36:52.549Z,3.80
2023-02-18T06:37:52.539Z,4.60
2023-02-18T06:38:52.489Z,4.20
2023-02-18T06:39:52.496Z,2.90
2023-02-18T06:40:52.471Z,4.10
2023-02-18T06:41:52.499Z,3.40
2023-02-18T06:42:53.505Z,3.60
2023-02-18T06:43:52.430Z,4.30
2023-02-18T06:44:52.409Z,4.30
2023-02-18T06:45:52.417Z,3.60
2023-02-18T06:46:52.498Z,3.90
2023-02-18T06:47:52.398Z,3.10
2023-02-18T06:48:52.364Z,3.30
2023-02-18T06:49:52.352Z,3.70
2023-02-18T06:50:52.367Z,3.30
2023-02-18T06:51:52.457Z,4.50
2023-02-18T06:52:52.578Z,3.90
2023-02-18T06:53:52.446Z,2.90
2023-02-18T06:54:52.290Z,3.40
2023-02-18T06:55:52.282Z,2.80
2023-02-18T06:56:52.477Z,4.60
2023-02-18T06:57:53.208Z,3.40
2023-02-18T06:58:52.226Z,3.80
2023-02-18T06:59:52.217Z,3.50
2023-02-18T07:00:52.339Z,5.20
2023-02-18T07:01:52.188Z,4.70
2023-02-18T07:02:52.222Z,3.50
2023-02-18T07:03:52.481Z,2.50
2023-02-18T07:04:52.262Z,5.60
2023-02-18T07:05:52.276Z,2.90
2023-02-18T07:06:52.132Z,2.10
2023-02-18T07:07:52.135Z,2.50
2023-02-18T07:08:52.095Z,2.50
2023-02-18T07:09:52.295Z,1.40
2023-02-18T07:10:52.289Z,3.00
2023-02-18T07:11:52.273Z,1.70
2023-02-18T07:12:52.087Z,2.30
2023-02-18T07:13:52.059Z,3.10
2023-02-18T07:14:52.102Z,2.00
2023-02-18T07:15:52.120Z,2.80
2023-02-18T07:16:52.195Z,1.70
2023-02-18T07:17:51.995Z,2.80
2023-02-18T07:18:52.140Z,2.50
2023-02-18T07:19:52.125Z,1.60
2023-02-18T07:20:51.941Z,3.40
2023-02-18T07:21:51.921Z,2.30
2023-02-18T07:22:51.957Z,2.30
2023-02-18T07:23:51.909Z,1.40
2023-02-18T07:24:51.956Z,1.40
2023-02-18T07:25:52.469Z,1.20
2023-02-18T07:26:52.032Z,0.80
2023-02-18T07:27:51.891Z,0.50
2023-02-18T07:28:51.863Z,0.90
2023-02-18T07:29:51.813Z,0.70
2023-02-18T07:30:51.986Z,1.10
2023-02-18T07:31:51.910Z,0.50
2023-02-18T07:32:52.996Z,0.80
2023-02-18T07:33:51.777Z,0.70
2023-02-18T07:34:52.070Z,0.80
2023-02-18T07:35:51.877Z,0.60
2023-02-18T07:36:51.994Z,1.60
2023-02-18T07:37:51.978Z,0.30
2023-02-18T07:38:51.703Z,2.40
2023-02-18T07:39:51.882Z,0.40
2023-02-18T07:40:51.673Z,1.30
2023-02-18T07:41:51.902Z,0.40
2023-02-18T07:42:51.676Z,1.10
2023-02-18T07:43:51.892Z,0.40
2023-02-18T07:44:51.648Z,0.60
2023-02-18T07:45:51.761Z,0.90
2023-02-18T07:46:51.763Z,0.40
2023-02-18T07:47:51.724Z,0.40
2023-02-18T07:48:51.663Z,0.40
2023-02-18T07:49:51.674Z,1.20
2023-02-18T07:50:51.665Z,0.50
2023-02-18T07:51:52.368Z,0.30
2023-02-18T07:52:51.827Z,1.20
2023-02-18T07:53:51.505Z,0.40
2023-02-18T07:54:51.512Z,0.40
2023-02-18T07:55:51.529Z,0.60
2023-02-18T07:56:51.672Z,0.30
2023-02-18T07:57:51.763Z,0.70
2023-02-18T07:58:51.451Z,0.30
2023-02-18T07:59:51.435Z,0.60
2023-02-18T08:00:51.892Z,0.30
2023-02-18T08:01:51.661Z,0.30
2023-02-18T08:02:51.674Z,0.50
2023-02-18T08:03:51.513Z,0.40
2023-02-18T08:04:51.379Z,0.60
2023-02-18T08:05:51.641Z,0.20
2023-02-18T08:06:51.322Z,0.90
2023-02-18T08:07:51.343Z,0.20
2023-02-18T08:08:51.313Z,0.30
2023-02-18T08:09:51.373Z,2.30
2023-02-18T08:10:51.274Z,0.60
2023-02-18T08:11:51.463Z,0.30
2023-02-18T08:12:52.084Z,0.10
2023-02-18T08:13:51.262Z,0.60
2023-02-18T08:14:51.233Z,0.20
2023-02-18T08:15:51.275Z,0.30
2023-02-18T08:16:51.335Z,0.60
2023-02-18T08:17:51.316Z,0.40
2023-02-18T08:18:51.252Z,0.50
2023-02-18T08:19:51.158Z,0.30
2023-02-18T08:20:51.799Z,0.20
2023-02-18T08:21:51.308Z,1.90
2023-02-18T08:22:51.334Z,2.90
2023-02-18T08:23:51.311Z,0.20
2023-02-18T08:24:51.101Z,0.10
2023-02-18T08:25:51.249Z,0.60
2023-02-18T08:27:00.262Z,0.20
2023-02-18T08:27:52.268Z,0.10
2023-02-18T08:28:51.169Z,0.80
2023-02-18T08:29:51.073Z,0.20
2023-02-18T08:30:51.063Z,0.30
2023-02-18T08:31:54.770Z,0.20
2023-02-18T08:32:51.032Z,0.20
2023-02-18T08:33:51.003Z,0.30
2023-02-18T08:34:50.972Z,0.20
2023-02-18T08:35:51.002Z,0.20
2023-02-18T08:36:51.006Z,0.60
2023-02-18T08:37:53.638Z,0.10
2023-02-18T08:38:50.949Z,0.30
2023-02-18T08:39:50.913Z,0.10
2023-02-18T08:40:50.908Z,0.20
2023-02-18T08:41:50.880Z,0.40
2023-02-18T08:42:50.955Z,0.50
2023-02-18T08:43:51.014Z,0.20
2023-02-18T08:44:51.739Z,0.30
2023-02-18T08:45:50.994Z,0.40
2023-02-18T08:46:51.120Z,0.40
2023-02-18T08:48:18.417Z,0.20
2023-02-18T08:48:51.807Z,0.30
2023-02-18T08:49:50.777Z,0.20
2023-02-18T08:50:50.799Z,0.40
2023-02-18T08:51:50.748Z,0.60
2023-02-18T08:52:50.762Z,3.80
2023-02-18T08:53:50.752Z,0.50
2023-02-18T08:54:50.707Z,0.50
2023-02-18T08:55:50.686Z,0.80
2023-02-18T08:56:51.439Z,2.70
2023-02-18T08:57:50.680Z,0.90
2023-02-18T08:58:50.676Z,0.50
2023-02-18T08:59:50.646Z,0.30
2023-02-18T09:00:50.622Z,1.10
2023-02-18T09:01:50.616Z,0.50
2023-02-18T09:02:50.598Z,0.30
2023-02-18T09:03:50.713Z,0.30
2023-02-18T09:04:50.565Z,0.40
2023-02-18T09:05:50.570Z,0.40
2023-02-18T09:06:50.851Z,0.20
2023-02-18T09:07:50.561Z,0.60
2023-02-18T09:08:50.552Z,0.30
2023-02-18T09:09:50.520Z,0.20
2023-02-18T09:10:54.665Z,0.50
2023-02-18T09:11:50.489Z,0.30
2023-02-18T09:12:50.488Z,0.20
2023-02-18T09:13:50.755Z,0.70
2023-02-18T09:14:50.436Z,0.30
2023-02-18T09:15:50.450Z,1.00
2023-02-18T09:16:50.454Z,0.80
2023-02-18T09:17:50.404Z,0.20
2023-02-18T09:18:50.437Z,0.70
2023-02-18T09:19:50.380Z,0.40
2023-02-18T09:20:50.354Z,0.50
2023-02-18T09:21:50.348Z,0.40
2023-02-18T09:22:50.322Z,0.40
2023-02-18T09:23:50.349Z,0.30
2023-02-18T09:24:50.303Z,0.50
2023-02-18T09:25:50.392Z,0.50
2023-02-18T09:26:50.271Z,0.60
2023-02-18T09:27:50.269Z,0.80
2023-02-18T09:28:50.298Z,0.60
2023-02-18T09:29:50.258Z,4.60
2023-02-18T09:30:50.275Z,0.40
2023-02-18T09:31:50.304Z,0.70
2023-02-18T09:32:50.230Z,0.80
2023-02-18T09:33:50.221Z,1.00
2023-02-18T09:34:50.160Z,0.90
2023-02-18T09:35:50.189Z,1.10
2023-02-18T09:36:50.184Z,1.00
2023-02-18T09:37:50.140Z,1.80
2023-02-18T09:38:50.476Z,3.60
2023-02-18T09:39:50.109Z,2.00
2023-02-18T09:40:50.094Z,2.20
2023-02-18T09:41:50.083Z,1.70
2023-02-18T09:42:50.128Z,1.30
2023-02-18T09:43:50.168Z,1.40
2023-02-18T09:44:50.821Z,1.10
2023-02-18T09:45:50.721Z,2.50
2023-02-18T09:46:50.177Z,1.40
2023-02-18T09:47:50.024Z,1.70
2023-02-18T09:48:50.065Z,1.50
2023-02-18T09:49:50.187Z,1.00
2023-02-18T09:50:50.097Z,1.50
2023-02-18T09:51:49.947Z,1.40
2023-02-18T09:52:49.931Z,1.00
2023-02-18T09:53:49.946Z,2.00
2023-02-18T09:54:49.922Z,1.50
2023-02-18T09:55:49.930Z,1.10
2023-02-18T09:56:49.869Z,2.20
2023-02-18T09:57:49.875Z,1.30
2023-02-18T09:58:49.892Z,0.80
2023-02-18T09:59:49.925Z,3.30
2023-02-18T10:00:49.838Z,0.90
2023-02-18T10:01:49.837Z,0.80
2023-02-18T10:02:49.809Z,3.50
2023-02-18T10:03:49.818Z,0.70
2023-02-18T10:04:54.419Z,1.10
2023-02-18T10:05:49.778Z,1.10
2023-02-18T10:06:49.800Z,1.30
2023-02-18T10:07:49.824Z,1.00
2023-02-18T10:08:50.362Z,0.90
2023-02-18T10:09:49.798Z,0.90
2023-02-18T10:10:49.815Z,0.80
2023-02-18T10:11:49.687Z,0.70
2023-02-18T10:12:49.877Z,1.20
2023-02-18T10:13:49.687Z,1.50
2023-02-18T10:14:49.650Z,1.70
2023-02-18T10:15:49.773Z,5.00
2023-02-18T10:16:49.607Z,0.90
2023-02-18T10:17:49.611Z,1.00
2023-02-18T10:18:49.863Z,0.80
2023-02-18T10:19:49.713Z,0.80
2023-02-18T10:20:50.238Z,3.00
2023-02-18T10:21:50.524Z,1.00
2023-02-18T10:22:49.530Z,3.20
2023-02-18T10:23:49.689Z,0.90
2023-02-18T10:24:49.737Z,0.80
2023-02-18T10:25:49.626Z,1.00
2023-02-18T10:26:49.477Z,1.20
2023-02-18T10:27:49.779Z,0.70
2023-02-18T10:28:49.622Z,0.90
2023-02-18T10:29:49.458Z,1.50
2023-02-18T10:30:49.564Z,0.70
2023-02-18T10:31:49.513Z,4.60
2023-02-18T10:32:49.659Z,1.00
2023-02-18T10:33:49.428Z,2.40
2023-02-18T10:34:49.380Z,47.40
2023-02-18T10:35:49.573Z,38.00
2023-02-18T10:36:49.646Z,6.50
2023-02-18T10:37:50.143Z,1.90
2023-02-18T10:38:53.029Z,1.80
2023-02-18T10:39:49.905Z,5.90
2023-02-18T10:40:49.396Z,1.40
2023-02-18T10:41:49.550Z,5.50
2023-02-18T10:42:50.167Z,3.60
2023-02-18T10:43:49.305Z,4.00
2023-02-18T10:44:49.257Z,3.10
2023-02-18T10:45:49.249Z,4.20
2023-02-18T10:46:49.359Z,1.80
2023-02-18T10:47:49.480Z,2.00
2023-02-18T10:48:49.257Z,1.70
2023-02-18T10:49:49.237Z,2.40
2023-02-18T10:50:49.167Z,1.90
2023-02-18T10:51:49.154Z,1.40
2023-02-18T10:52:49.138Z,6.20
2023-02-18T10:53:53.477Z,5.20
2023-02-18T10:54:49.117Z,3.30
2023-02-18T10:55:49.885Z,7.70
2023-02-18T10:56:49.103Z,2.90
2023-02-18T10:57:49.076Z,1.70
2023-02-18T10:58:53.320Z,5.90
2023-02-18T10:59:49.062Z,2.50
2023-02-18T11:00:53.317Z,4.40
2023-02-18T11:01:49.072Z,3.80
2023-02-18T11:02:49.005Z,2.40
2023-02-18T11:03:49.055Z,1.80
2023-02-18T11:04:49.057Z,4.00
2023-02-18T11:05:48.981Z,4.70
2023-02-18T11:06:49.178Z,5.10
2023-02-18T11:07:48.937Z,2.70
2023-02-18T11:08:48.957Z,3.30
2023-02-18T11:09:53.226Z,7.40
2023-02-18T11:10:48.974Z,3.10
2023-02-18T11:11:53.637Z,5.30
2023-02-18T11:12:49.895Z,6.20
2023-02-18T11:13:48.902Z,3.40
2023-02-18T11:14:49.652Z,4.90
2023-02-18T11:15:48.907Z,8.50
2023-02-18T11:16:48.812Z,3.70
2023-02-18T11:17:48.851Z,6.70
2023-02-18T11:18:50.664Z,4.40
2023-02-18T11:19:48.781Z,8.00
2023-02-18T11:20:48.762Z,2.60
2023-02-18T11:21:48.758Z,6.30
2023-02-18T11:22:49.511Z,3.00
2023-02-18T11:23:48.731Z,10.10
2023-02-18T11:24:48.783Z,4.10
2023-02-18T11:25:48.702Z,7.40
2023-02-18T11:26:48.711Z,5.40
2023-02-18T11:27:48.691Z,8.60
2023-02-18T11:28:48.675Z,5.20
2023-02-18T11:29:49.001Z,4.00
2023-02-18T11:30:48.972Z,2.50
2023-02-18T11:31:48.711Z,6.90
2023-02-18T11:32:48.599Z,7.60
2023-02-18T11:33:48.593Z,10.30
2023-02-18T11:34:48.611Z,14.50
2023-02-18T11:35:48.580Z,5.30
2023-02-18T11:36:48.558Z,4.50
2023-02-18T11:37:48.551Z,7.90
2023-02-18T11:38:48.860Z,6.90
2023-02-18T11:39:48.557Z,7.50
2023-02-18T11:40:48.507Z,9.50
2023-02-18T11:41:48.748Z,11.60
2023-02-18T11:42:48.477Z,4.50
2023-02-18T11:43:48.480Z,9.30
2023-02-18T11:44:49.250Z,6.30
2023-02-18T11:45:48.440Z,4.90
2023-02-18T11:46:48.454Z,8.10
2023-02-18T11:47:48.418Z,5.30
2023-02-18T11:48:48.420Z,6.40
2023-02-18T11:49:48.420Z,8.10
2023-02-18T11:50:48.372Z,2.40
2023-02-18T11:51:48.364Z,4.70
2023-02-18T11:52:48.370Z,7.90
2023-02-18T11:53:48.346Z,3.50
2023-02-18T11:54:48.351Z,6.70
2023-02-18T11:55:48.342Z,5.60
2023-02-18T11:56:48.640Z,7.00
2023-02-18T11:57:48.290Z,3.60
2023-02-18T11:58:48.275Z,2.50
2023-02-18T11:59:48.286Z,3.90
2023-02-18T12:00:48.255Z,1.90
2023-02-18T12:01:48.252Z,1.70
2023-02-18T12:02:48.619Z,2.60
2023-02-18T12:03:48.208Z,1.10
2023-02-18T12:04:48.268Z,2.80
2023-02-18T12:05:48.176Z,2.60
2023-02-18T12:06:48.175Z,3.70
2023-02-18T12:07:48.152Z,1.40
2023-02-18T12:08:48.356Z,3.10
2023-02-18T12:09:48.264Z,5.50
2023-02-18T12:10:48.127Z,1.90
2023-02-18T12:11:48.118Z,4.50
2023-02-18T12:12:48.405Z,5.10
2023-02-18T12:13:48.074Z,1.60
2023-02-18T12:14:48.099Z,0.90
2023-02-18T12:15:48.045Z,2.30
2023-02-18T12:16:48.091Z,2.10
2023-02-18T12:17:48.024Z,6.70
2023-02-18T12:18:48.149Z,2.20
2023-02-18T12:19:48.187Z,6.50
2023-02-18T12:20:47.985Z,3.50
2023-02-18T12:21:47.989Z,5.70
2023-02-18T12:22:47.997Z,4.70
2023-02-18T12:23:48.580Z,2.90
2023-02-18T12:24:50.383Z,1.50
2023-02-18T12:25:48.315Z,4.00
2023-02-18T12:26:48.105Z,2.80
2023-02-18T12:27:48.013Z,1.50
2023-02-18T12:28:47.901Z,4.50
2023-02-18T12:29:47.894Z,3.20
2023-02-18T12:30:52.135Z,4.10
2023-02-18T12:31:48.110Z,2.00
2023-02-18T12:32:48.016Z,1.70
2023-02-18T12:33:47.822Z,3.70
2023-02-18T12:34:48.025Z,2.00
2023-02-18T12:35:47.943Z,3.70
2023-02-18T12:36:47.905Z,1.60
2023-02-18T12:37:51.943Z,1.30
2023-02-18T12:38:47.923Z,1.60
2023-02-18T12:39:47.764Z,1.40
2023-02-18T12:40:48.529Z,2.10
2023-02-18T12:41:47.783Z,1.60
2023-02-18T12:42:47.712Z,1.60
2023-02-18T12:43:47.893Z,4.50
2023-02-18T12:44:47.932Z,1.00
2023-02-18T12:45:47.669Z,3.80
2023-02-18T12:46:47.647Z,1.10
2023-02-18T12:47:47.633Z,2.40
2023-02-18T12:48:47.994Z,1.80
2023-02-18T12:49:47.635Z,1.80
2023-02-18T12:50:47.611Z,3.90
2023-02-18T12:51:47.574Z,2.30
2023-02-18T12:52:47.567Z,1.50
2023-02-18T12:53:47.543Z,1.10
2023-02-18T12:54:47.573Z,2.20
2023-02-18T12:55:47.603Z,4.10
2023-02-18T12:56:47.520Z,1.90
2023-02-18T12:57:47.668Z,2.80
2023-02-18T12:58:47.491Z,1.60
2023-02-18T12:59:47.588Z,1.80
2023-02-18T13:00:47.902Z,1.60
2023-02-18T13:01:47.556Z,1.50
2023-02-18T13:02:47.456Z,1.50
2023-02-18T13:03:47.502Z,3.60
2023-02-18T13:04:47.701Z,1.70
2023-02-18T13:05:47.569Z,3.40
2023-02-18T13:06:47.621Z,4.90
2023-02-18T13:07:47.571Z,1.10